Time;durP1;ratioP1;P1;durP2;ratioP2;P2;SDS_P1;SDS_P2;PMS_P1;PMS_P2;Temp;Humidity;BMP_temperature;BMP_pressure;BME280_temperature;BME280_humidity;BME280_pressure;Samples;Min_cycle;Max_cycle;Signal;HPM_P1;HPM_P2
2023/10/13 00:00:40;;;;;;;26.55;13.52;;;;;;;16.06;100.00;101153.91;5031660;28;20022;-69
2023/10/13 00:03:14;;;;;;;24.75;13.05;;;;;;;16.04;100.00;101146.81;5034011;28;20037;-69
2023/10/13 00:05:41;;;;;;;25.02;13.68;;;;;;;16.04;100.00;101149.47;5033919;28;20033;-69
2023/10/13 00:08:08;;;;;;;26.45;13.90;;;;;;;16.02;100.00;101148.63;5034085;28;20064;-69
2023/10/13 00:10:33;;;;;;;27.58;13.32;;;;;;;15.98;100.00;101135.34;5033831;28;20143;-69
2023/10/13 00:13:11;;;;;;;25.90;13.55;;;;;;;15.97;100.00;101138.91;5033199;28;20112;-69
2023/10/13 00:15:46;;;;;;;25.50;12.82;;;;;;;15.94;100.00;101131.84;5033977;28;20539;-68
2023/10/13 00:18:12;;;;;;;25.90;12.68;;;;;;;15.92;100.00;101135.44;5033955;28;20116;-68
2023/10/13 00:20:50;;;;;;;25.10;12.75;;;;;;;15.88;100.00;101139.94;5033665;28;20112;-69
2023/10/13 00:23:20;;;;;;;25.00;13.05;;;;;;;15.82;100.00;101121.34;5033919;28;20040;-69
2023/10/13 00:25:56;;;;;;;27.17;12.85;;;;;;;15.77;100.00;101118.72;5033573;28;20033;-68
2023/10/13 00:28:26;;;;;;;25.27;13.05;;;;;;;15.75;100.00;101116.97;5030148;28;20083;-68
2023/10/13 00:31:10;;;;;;;25.15;13.38;;;;;;;15.69;100.00;101118.78;5033547;28;20029;-69
2023/10/13 00:33:40;;;;;;;25.55;13.18;;;;;;;15.68;100.00;101117.06;5031507;28;20443;-68
2023/10/13 00:36:07;;;;;;;25.60;13.93;;;;;;;15.64;100.00;101115.31;5033401;28;20155;-69
2023/10/13 00:38:35;;;;;;;26.30;13.38;;;;;;;15.66;100.00;101118.84;5033421;28;20029;-65
2023/10/13 00:41:16;;;;;;;25.17;12.93;;;;;;;15.60;100.00;101108.25;5033458;28;20032;-68
2023/10/13 00:44:04;;;;;;;26.13;13.47;;;;;;;15.60;100.00;101110.94;5033485;28;20100;-68
2023/10/13 00:46:33;;;;;;;25.55;13.35;;;;;;;15.55;100.00;101102.09;5030583;28;20029;-68
2023/10/13 00:48:59;;;;;;;26.20;13.45;;;;;;;15.53;100.00;101106.56;5033154;28;20072;-68
2023/10/13 00:51:40;;;;;;;27.15;13.23;;;;;;;15.54;100.00;101105.69;5033165;28;20036;-68
2023/10/13 00:54:13;;;;;;;26.17;13.18;;;;;;;15.51;100.00;101108.38;5031224;28;20072;-68
2023/10/13 00:59:35;;;;;;;27.60;13.52;;;;;;;15.46;100.00;101089.75;5022208;28;20038;-64
2023/10/13 01:02:26;;;;;;;26.50;13.38;;;;;;;15.46;100.00;101091.56;5032921;28;20025;-63
2023/10/13 01:04:46;;;;;;;26.80;13.68;;;;;;;15.44;100.00;101082.72;5032916;28;20547;-63
2023/10/13 01:07:12;;;;;;;26.77;13.52;;;;;;;15.42;100.00;101081.84;5032909;28;20061;-63
2023/10/13 01:09:47;;;;;;;27.63;13.57;;;;;;;15.43;100.00;101088.94;5032999;28;20380;-64
2023/10/13 01:12:14;;;;;;;28.08;13.43;;;;;;;15.41;100.00;101078.28;5033006;28;20052;-63
2023/10/13 01:14:40;;;;;;;25.63;13.23;;;;;;;15.38;100.00;101077.44;5032702;28;20040;-63
2023/10/13 01:17:05;;;;;;;26.77;13.15;;;;;;;15.37;100.00;101073.03;5032963;28;20385;-63
2023/10/13 01:19:38;;;;;;;26.52;12.60;;;;;;;15.37;100.00;101070.38;5032879;28;20465;-64
2023/10/13 01:22:06;;;;;;;26.23;13.02;;;;;;;15.34;100.00;101063.28;5032687;28;20527;-64
2023/10/13 01:24:34;;;;;;;26.65;13.13;;;;;;;15.32;100.00;101055.31;5031711;28;20113;-63
2023/10/13 01:27:17;;;;;;;25.15;12.27;;;;;;;15.32;100.00;101051.78;5032770;28;20060;-64
2023/10/13 01:29:50;;;;;;;27.13;12.85;;;;;;;15.29;100.00;101042.03;5032784;28;20033;-64
2023/10/13 01:32:18;;;;;;;30.65;12.73;;;;;;;15.30;100.00;101046.47;5032416;28;20076;-63
2023/10/13 01:34:46;;;;;;;25.20;12.20;;;;;;;15.29;100.00;101039.38;5032448;28;20469;-63
2023/10/13 01:37:11;;;;;;;26.77;12.57;;;;;;;15.30;100.00;101034.94;5032652;28;20435;-64
2023/10/13 01:39:37;;;;;;;25.52;12.13;;;;;;;15.28;100.00;101034.94;5032539;28;20029;-63
2023/10/13 01:42:03;;;;;;;24.42;12.05;;;;;;;15.28;100.00;101024.28;5032414;28;20037;-64
2023/10/13 01:44:30;;;;;;;26.70;13.05;;;;;;;15.26;100.00;101020.78;5032850;28;20416;-66
2023/10/13 01:46:59;;;;;;;26.30;12.57;;;;;;;15.28;100.00;101023.44;5032426;28;20030;-65
2023/10/13 01:49:25;;;;;;;27.30;12.85;;;;;;;15.25;100.00;101013.69;5032462;28;20040;-65
2023/10/13 01:51:50;;;;;;;26.58;13.18;;;;;;;15.25;100.00;101007.50;5032599;28;20026;-66
2023/10/13 01:54:16;;;;;;;28.45;13.20;;;;;;;15.25;100.00;101002.16;5032289;28;20084;-65
2023/10/13 01:56:44;;;;;;;28.27;13.65;;;;;;;15.25;100.00;100999.50;5032224;28;20042;-66
2023/10/13 01:59:13;;;;;;;29.02;14.02;;;;;;;15.25;100.00;101003.03;5032479;28;20124;-66
2023/10/13 02:01:40;;;;;;;29.58;13.88;;;;;;;15.28;100.00;100994.13;5032255;28;20034;-66
2023/10/13 02:04:06;;;;;;;29.35;14.13;;;;;;;15.28;100.00;100981.69;5032327;28;20029;-66
2023/10/13 02:06:33;;;;;;;28.90;13.93;;;;;;;15.30;100.00;100987.00;5032478;28;20109;-66
2023/10/13 02:09:12;;;;;;;28.23;14.40;;;;;;;15.32;100.00;100986.06;5032630;28;20018;-65
2023/10/13 02:11:42;;;;;;;29.80;14.57;;;;;;;15.30;100.00;100979.00;5032309;28;20025;-65
2023/10/13 02:14:07;;;;;;;30.65;15.40;;;;;;;15.29;100.00;100980.78;5032112;28;20061;-65
2023/10/13 02:16:33;;;;;;;30.25;15.60;;;;;;;15.31;100.00;100984.31;5032431;28;20060;-65
2023/10/13 02:19:03;;;;;;;29.08;15.63;;;;;;;15.31;100.00;100984.31;5032388;28;20025;-65
2023/10/13 02:21:33;;;;;;;31.45;16.00;;;;;;;15.34;100.00;100980.72;5032349;28;20374;-66
2023/10/13 02:24:03;;;;;;;31.70;16.98;;;;;;;15.36;100.00;100978.03;5032551;28;20430;-65
2023/10/13 02:26:30;;;;;;;34.78;17.73;;;;;;;15.40;100.00;100977.97;5032217;28;20030;-65
2023/10/13 02:29:22;;;;;;;34.03;17.67;;;;;;;15.42;100.00;100975.28;5032064;28;20080;-64
2023/10/13 02:31:54;;;;;;;35.92;18.85;;;;;;;15.44;100.00;100965.50;5031099;28;20493;-64
2023/10/13 02:34:22;;;;;;;35.67;19.67;;;;;;;15.44;100.00;100965.50;5031895;28;20036;-64
2023/10/13 02:36:48;;;;;;;34.22;19.65;;;;;;;15.47;100.00;100962.81;5035499;28;20025;-64
2023/10/13 02:39:24;;;;;;;38.88;21.67;;;;;;;15.47;100.00;100946.81;5034612;28;20036;-65
2023/10/13 02:41:50;;;;;;;38.15;21.13;;;;;;;15.49;100.00;100947.66;5035842;28;20035;-65
2023/10/13 02:44:31;;;;;;;38.95;21.27;;;;;;;15.48;100.00;100940.59;5035444;28;20044;-64
2023/10/13 02:46:57;;;;;;;41.13;22.15;;;;;;;15.48;100.00;100937.94;5032106;28;20026;-67
2023/10/13 02:49:27;;;;;;;41.40;23.08;;;;;;;15.49;100.00;100923.69;5035840;28;20078;-64
2023/10/13 02:51:55;;;;;;;42.72;24.20;;;;;;;15.50;100.00;100912.13;5035417;28;20128;-64
2023/10/13 02:54:21;;;;;;;43.75;25.35;;;;;;;15.52;100.00;100910.31;5035491;28;20378;-65
2023/10/13 02:56:56;;;;;;;41.70;24.42;;;;;;;15.55;100.00;100912.06;5035223;28;20053;-65
2023/10/13 02:59:40;;;;;;;47.85;26.15;;;;;;;15.57;100.00;100904.94;5035545;28;20042;-64
2023/10/13 03:02:29;;;;;;;47.35;27.27;;;;;;;15.54;100.00;100900.53;5032870;28;20583;-64
2023/10/13 03:05:08;;;;;;;47.67;26.08;;;;;;;15.56;100.00;100893.38;5031052;28;20049;-64
2023/10/13 03:07:36;;;;;;;48.50;27.15;;;;;;;15.58;100.00;100874.72;5032687;28;20043;-65
2023/10/13 03:10:09;;;;;;;49.38;27.77;;;;;;;15.59;100.00;100872.03;5034924;28;20026;-64
2023/10/13 03:12:38;;;;;;;48.92;28.42;;;;;;;15.59;100.00;100866.69;5034963;28;20029;-65
2023/10/13 03:17:36;;;;;;;51.33;29.25;;;;;;;15.61;100.00;100864.00;5034891;28;20447;-66
2023/10/13 03:20:05;;;;;;;50.58;29.10;;;;;;;15.64;100.00;100861.28;5034806;28;20033;-65
2023/10/13 03:22:31;;;;;;;53.45;29.05;;;;;;;15.65;100.00;100847.97;5035085;28;20038;-64
2023/10/13 03:25:04;;;;;;;54.05;28.83;;;;;;;15.66;100.00;100849.69;5035027;28;20452;-64
2023/10/13 03:27:40;;;;;;;53.08;30.13;;;;;;;15.71;100.00;100848.75;5034898;28;20108;-64
2023/10/13 03:30:13;;;;;;;55.28;30.83;;;;;;;15.72;100.00;100850.53;5034631;28;20053;-63
2023/10/13 03:32:46;;;;;;;56.88;31.50;;;;;;;15.74;100.00;100838.03;5034936;28;20087;-64
2023/10/13 03:35:13;;;;;;;58.58;31.60;;;;;;;15.76;100.00;100817.59;5034595;28;20068;-64
2023/10/13 03:37:39;;;;;;;57.83;32.80;;;;;;;15.78;100.00;100815.75;5034494;28;20044;-65
2023/10/13 03:45:42;;;;;;;60.97;33.58;;;;;;;15.82;100.00;100806.84;5032032;28;20036;-64
2023/10/13 03:48:09;;;;;;;62.17;33.28;;;;;;;15.83;100.00;100803.28;5033452;28;20027;-64
2023/10/13 03:50:37;;;;;;;64.40;34.75;;;;;;;15.86;100.00;100805.88;5034252;28;20026;-64
2023/10/13 03:53:06;;;;;;;63.90;34.83;;;;;;;15.88;100.00;100793.41;5034198;28;20053;-64
2023/10/13 03:55:34;;;;;;;59.78;33.55;;;;;;;15.91;100.00;100787.13;5034160;28;20556;-64
2023/10/13 03:58:00;;;;;;;59.22;33.40;;;;;;;15.92;100.00;100787.13;5034427;28;20453;-64
2023/10/13 04:00:27;;;;;;;58.58;33.20;;;;;;;15.95;100.00;100783.50;5034164;28;20061;-64
2023/10/13 04:08:46;;;;;;;55.35;33.20;;;;;;;16.02;100.00;100759.38;5034238;28;20043;-65
2023/10/13 04:19:22;;;;;;;53.22;30.92;;;;;;;16.10;100.00;100745.00;5033775;28;20033;-65
2023/10/13 04:27:19;;;;;;;50.78;29.23;;;;;;;16.15;100.00;100749.34;5034147;28;20061;-65
2023/10/13 04:29:45;;;;;;;48.33;28.67;;;;;;;16.17;100.00;100752.84;5030310;28;20041;-66
2023/10/13 04:32:14;;;;;;;48.45;28.73;;;;;;;16.17;100.00;100757.31;5031880;28;20465;-65
2023/10/13 04:34:45;;;;;;;45.90;26.92;;;;;;;16.22;100.00;100752.75;5033366;28;20029;-65
2023/10/13 04:37:47;;;;;;;45.72;26.90;;;;;;;16.26;100.00;100746.44;5033425;28;20104;-65
2023/10/13 04:40:09;;;;;;;44.50;26.02;;;;;;;16.29;100.00;100749.03;5029482;28;20103;-65
2023/10/13 04:42:53;;;;;;;45.40;26.48;;;;;;;16.31;100.00;100744.56;5029818;28;20033;-65
2023/10/13 04:50:47;;;;;;;43.40;24.45;;;;;;;16.38;100.00;100740.88;5032463;28;20075;-65
2023/10/13 04:54:00;;;;;;;42.92;24.85;;;;;;;16.36;100.00;100734.66;5033666;28;20393;-66
2023/10/13 05:02:31;;;;;;;37.42;21.80;;;;;;;16.41;100.00;100723.91;5033296;28;20041;-66
2023/10/13 06:29:48;;;;;;;31.30;16.38;;;;;;;16.21;100.00;100618.53;5035767;28;20501;-69
2023/10/13 06:32:16;;;;;;;31.40;16.42;;;;;;;16.22;100.00;100622.06;5035878;28;20104;-68
2023/10/13 06:34:45;;;;;;;32.67;16.45;;;;;;;16.20;100.00;100632.78;5037347;28;20029;-69
2023/10/13 06:37:29;;;;;;;32.15;16.40;;;;;;;16.20;100.00;100618.56;5035522;28;20036;-68
2023/10/13 06:39:59;;;;;;;31.10;16.00;;;;;;;16.19;100.00;100608.81;5032644;28;20031;-68
2023/10/13 06:42:28;;;;;;;29.98;16.02;;;;;;;16.18;100.00;100607.94;5036030;28;20040;-70
2023/10/13 06:45:00;;;;;;;32.30;16.70;;;;;;;16.17;100.00;100600.84;5035651;28;20030;-68
2023/10/13 06:47:27;;;;;;;32.97;16.03;;;;;;;16.21;100.00;100594.53;5036111;28;20110;-68
2023/10/13 06:49:54;;;;;;;32.00;15.60;;;;;;;16.22;100.00;100584.72;5046205;28;20292;-68
2023/10/13 06:52:22;;;;;;;30.38;15.18;;;;;;;16.25;100.00;100597.13;5038706;28;20026;-67
2023/10/13 06:54:50;;;;;;;32.50;16.13;;;;;;;16.24;100.00;100596.25;5035215;28;20065;-68
2023/10/13 06:57:20;;;;;;;32.13;16.10;;;;;;;16.27;100.00;100593.53;5035284;28;20103;-68
2023/10/13 06:59:45;;;;;;;31.00;15.55;;;;;;;16.29;100.00;100591.69;5034184;28;20468;-69
2023/10/13 07:02:21;;;;;;;31.80;15.38;;;;;;;16.31;100.00;100579.22;5035056;28;20064;-69
2023/10/13 07:04:56;;;;;;;30.20;15.10;;;;;;;16.37;100.00;100570.19;5031739;28;20103;-66
2023/10/13 07:07:23;;;;;;;32.58;16.25;;;;;;;16.40;100.00;100572.78;5032163;28;20037;-67
2023/10/13 07:09:55;;;;;;;31.80;15.93;;;;;;;16.39;100.00;100569.22;5035512;28;20385;-68
2023/10/13 07:12:26;;;;;;;34.13;17.43;;;;;;;16.41;100.00;100555.88;5035224;28;20026;-69
2023/10/13 07:14:53;;;;;;;35.72;17.15;;;;;;;16.43;100.00;100558.50;5033514;28;20307;-69
2023/10/13 07:17:25;;;;;;;34.30;15.95;;;;;;;16.49;100.00;100561.00;5035122;28;20439;-67
2023/10/13 07:20:23;;;;;;;31.52;15.88;;;;;;;16.48;100.00;100552.09;5033707;28;20029;-67
2023/10/13 07:22:54;;;;;;;32.67;15.85;;;;;;;16.51;100.00;100546.72;5040592;28;20033;-67
2023/10/13 07:25:24;;;;;;;33.65;15.75;;;;;;;16.54;100.00;100557.31;5029538;28;20044;-67
2023/10/13 07:27:49;;;;;;;33.83;15.30;;;;;;;16.57;100.00;100543.00;5031630;28;20055;-67
2023/10/13 07:30:19;;;;;;;32.85;15.10;;;;;;;16.60;100.00;100542.03;5034607;28;20370;-68
2023/10/13 07:32:45;;;;;;;32.80;14.93;;;;;;;16.64;100.00;100546.41;5034988;28;20091;-67
2023/10/13 07:35:24;;;;;;;30.25;14.90;;;;;;;16.69;100.00;100536.50;5036823;28;20049;-67
2023/10/13 07:37:52;;;;;;;29.58;14.43;;;;;;;16.71;100.00;100542.66;5034728;28;20372;-67
2023/10/13 07:43:05;;;;;;;30.00;12.90;;;;;;;16.82;100.00;100553.03;5034641;28;20083;-68
2023/10/13 07:45:36;;;;;;;29.13;13.18;;;;;;;16.87;100.00;100541.34;5034443;28;20389;-68
2023/10/13 07:48:12;;;;;;;29.73;13.40;;;;;;;16.90;100.00;100541.28;5033985;28;20029;-68
2023/10/13 07:50:38;;;;;;;27.88;12.95;;;;;;;16.94;100.00;100542.09;5034550;28;20381;-68
2023/10/13 07:53:19;;;;;;;26.45;11.48;;;;;;;16.90;100.00;100537.75;5034371;28;20032;-68
2023/10/13 07:55:47;;;;;;;24.48;10.98;;;;;;;16.89;100.00;100528.88;5034120;28;20144;-69
2023/10/13 07:58:13;;;;;;;26.73;11.25;;;;;;;16.92;100.00;100532.34;5034593;28;20033;-68
2023/10/13 08:08:35;;;;;;;26.63;10.85;;;;;;;17.01;100.00;100519.66;5035707;28;20870;-68
2023/10/13 08:11:08;;;;;;;23.67;10.35;;;;;;;17.04;100.00;100532.91;5033959;28;20457;-68
2023/10/13 08:13:37;;;;;;;24.35;9.60;;;;;;;17.10;100.00;100528.34;5049273;28;20414;-68
2023/10/13 08:16:09;;;;;;;26.40;9.43;;;;;;;17.18;100.00;100519.19;5032727;28;20052;-68
2023/10/13 08:18:36;;;;;;;24.58;9.73;;;;;;;17.27;100.00;100526.06;5034336;28;20033;-68
2023/10/13 08:21:03;;;;;;;24.30;9.15;;;;;;;17.37;100.00;100519.53;5033857;28;20062;-68
2023/10/13 08:31:49;;;;;;;23.65;8.15;;;;;;;17.67;100.00;100519.53;5038208;28;20071;-68
2023/10/13 08:34:22;;;;;;;22.65;7.85;;;;;;;17.69;100.00;100520.38;5033155;28;20480;-69
2023/10/13 08:36:48;;;;;;;24.80;7.97;;;;;;;17.67;100.00;100514.19;5030038;28;20480;-69
2023/10/13 08:39:57;;;;;;;22.80;8.40;;;;;;;17.80;100.00;100501.31;5033456;28;20029;-68
2023/10/13 08:42:13;;;;;;;23.23;7.57;;;;;;;17.89;100.00;100505.50;5031483;28;20435;-69
2023/10/13 08:44:52;;;;;;;24.50;7.88;;;;;;;17.88;100.00;100493.06;5033367;28;20032;-68
2023/10/13 08:47:24;;;;;;;25.98;7.72;;;;;;;18.02;100.00;100490.00;5029830;28;20357;-67
2023/10/13 08:49:52;;;;;;;22.73;7.13;;;;;;;18.00;100.00;100503.41;5030095;28;20033;-68
2023/10/13 08:56:00;;;;;;;23.17;7.15;;;;;;;18.03;100.00;100460.53;5043383;28;20051;-68
2023/10/13 08:57:53;;;;;;;23.85;7.40;;;;;;;18.17;100.00;100461.88;5042547;28;20041;-67
2023/10/13 09:00:51;;;;;;;24.90;7.75;;;;;;;18.30;100.00;100455.16;5032998;28;20030;-68
2023/10/13 09:03:28;;;;;;;22.08;7.45;;;;;;;18.44;100.00;100446.69;5031963;28;20073;-67
2023/10/13 09:06:06;;;;;;;21.55;6.93;;;;;;;18.58;100.00;100438.16;5029801;28;20448;-67
2023/10/13 09:08:44;;;;;;;21.75;7.30;;;;;;;18.72;100.00;100433.19;5030424;28;20040;-67
2023/10/13 09:11:13;;;;;;;22.33;7.18;;;;;;;18.84;100.00;100406.91;5032911;28;20025;-67
2023/10/13 09:13:45;;;;;;;23.80;6.97;;;;;;;18.91;100.00;100420.03;5032934;28;20037;-67
2023/10/13 09:16:51;;;;;;;21.50;6.77;;;;;;;18.93;100.00;100409.25;5033049;28;20458;-67
2023/10/13 09:19:05;;;;;;;22.95;6.95;;;;;;;18.99;100.00;100403.69;5030412;28;20061;-67
2023/10/13 09:24:21;;;;;;;21.50;7.05;;;;;;;19.03;100.00;100425.88;5035947;28;20045;-67
2023/10/13 09:26:49;;;;;;;22.63;7.15;;;;;;;19.06;100.00;100415.94;5029486;28;20033;-66
2023/10/13 09:29:24;;;;;;;22.17;7.40;;;;;;;19.12;100.00;100407.66;5032281;28;20426;-67
2023/10/13 09:32:01;;;;;;;21.90;6.60;;;;;;;19.15;100.00;100409.34;5032488;28;20108;-67
2023/10/13 09:34:33;;;;;;;22.45;7.07;;;;;;;19.15;100.00;100394.13;5032381;28;20041;-68
2023/10/13 09:36:59;;;;;;;23.67;6.80;;;;;;;19.27;100.00;100408.00;5032378;28;20457;-68
2023/10/13 09:39:41;;;;;;;20.58;6.63;;;;;;;19.38;100.00;100394.16;5032665;28;20135;-69
2023/10/13 09:42:10;;;;;;;23.13;6.90;;;;;;;19.55;100.00;100390.84;5030325;28;20095;-68
2023/10/13 09:44:37;;;;;;;21.05;6.82;;;;;;;19.68;100.00;100389.41;5037372;28;20359;-67
2023/10/13 09:47:16;;;;;;;22.08;6.53;;;;;;;19.69;100.00;100378.59;5035145;28;20113;-67
2023/10/13 09:49:51;;;;;;;21.77;6.40;;;;;;;19.65;100.00;100384.16;5032688;28;20033;-67
2023/10/13 09:52:25;;;;;;;21.88;6.93;;;;;;;19.63;100.00;100381.53;5036146;28;20081;-67
2023/10/13 09:55:08;;;;;;;22.02;6.65;;;;;;;19.75;100.00;100377.47;5036292;28;20029;-68
2023/10/13 09:57:40;;;;;;;22.67;6.30;;;;;;;19.94;100.00;100369.56;5036646;28;20158;-67
2023/10/13 10:02:58;;;;;;;22.77;6.35;;;;;;;20.35;100.00;100360.69;5036439;28;20037;-67
2023/10/13 10:05:25;;;;;;;23.48;6.70;;;;;;;20.45;100.00;100353.97;5038596;28;20030;-67
2023/10/13 10:08:01;;;;;;;23.83;6.80;;;;;;;20.42;100.00;100362.16;5036124;28;20507;-67
2023/10/13 10:11:00;;;;;;;24.08;6.60;;;;;;;20.36;100.00;100347.19;5036318;28;20026;-67
2023/10/13 10:14:00;;;;;;;22.27;6.63;;;;;;;20.33;100.00;100343.78;5029923;28;20046;-67
2023/10/13 10:17:07;;;;;;;23.98;6.90;;;;;;;20.32;100.00;100347.41;5032726;28;20061;-67
2023/10/13 10:19:36;;;;;;;23.40;6.90;;;;;;;20.23;100.00;100342.41;5033302;28;20124;-68
2023/10/13 10:22:17;;;;;;;21.10;6.10;;;;;;;20.19;100.00;100345.25;5036049;28;20037;-67
2023/10/13 10:24:43;;;;;;;21.95;6.78;;;;;;;20.15;100.00;100332.94;5035849;28;20091;-68
2023/10/13 10:27:14;;;;;;;22.77;6.80;;;;;;;20.22;100.00;100343.38;5036928;28;20086;-68
2023/10/13 10:29:52;;;;;;;22.42;6.82;;;;;;;20.20;100.00;100338.94;5035929;28;20040;-70
2023/10/13 10:32:18;;;;;;;23.33;6.70;;;;;;;20.19;100.00;100321.09;5035908;28;20168;-69
2023/10/13 10:34:44;;;;;;;21.42;6.80;;;;;;;20.24;100.00;100328.06;5035170;28;20421;-70
2023/10/13 10:37:10;;;;;;;22.67;6.60;;;;;;;20.29;100.00;100324.25;5035544;28;20079;-70
2023/10/13 10:39:45;;;;;;;21.60;7.22;;;;;;;20.35;100.00;100323.97;5034548;28;20392;-68
2023/10/13 10:42:23;;;;;;;22.35;6.75;;;;;;;20.44;100.00;100322.69;5035588;28;20040;-68
2023/10/13 10:44:55;;;;;;;23.92;6.78;;;;;;;20.41;100.00;100322.84;5032379;28;20057;-67
2023/10/13 10:47:38;;;;;;;23.67;7.05;;;;;;;20.40;100.00;100342.56;5035284;28;20037;-67
2023/10/13 10:50:08;;;;;;;21.45;6.82;;;;;;;20.05;100.00;100328.00;5031629;28;20029;-67
2023/10/13 10:52:37;;;;;;;23.83;7.18;;;;;;;19.99;100.00;100334.50;5035586;28;20040;-67
2023/10/13 10:55:13;;;;;;;20.88;6.80;;;;;;;20.09;100.00;100325.13;5031054;28;20029;-67
2023/10/13 10:57:42;;;;;;;22.98;7.20;;;;;;;20.22;100.00;100319.25;5031295;28;20051;-68
2023/10/13 11:00:19;;;;;;;24.75;7.28;;;;;;;20.41;100.00;100317.47;5033899;28;20385;-69
2023/10/13 11:02:54;;;;;;;22.17;7.15;;;;;;;20.48;100.00;100329.66;5035330;28;20029;-70
2023/10/13 11:05:20;;;;;;;21.45;7.53;;;;;;;20.61;100.00;100330.00;5035257;28;20056;-68
2023/10/13 11:07:50;;;;;;;23.23;7.50;;;;;;;20.78;100.00;100323.00;5035101;28;20038;-69
2023/10/13 11:10:29;;;;;;;23.73;7.00;;;;;;;20.86;100.00;100319.00;5034555;28;20072;-67
2023/10/13 11:13:47;;;;;;;22.08;6.93;;;;;;;20.89;100.00;100318.88;5032515;28;20045;-69
2023/10/13 11:15:48;;;;;;;23.70;6.97;;;;;;;20.91;100.00;100308.03;5028482;28;20049;-69
2023/10/13 11:18:23;;;;;;;24.08;7.20;;;;;;;20.86;100.00;100294.84;5031456;28;20128;-67
2023/10/13 11:20:58;;;;;;;23.25;7.07;;;;;;;20.89;100.00;100301.88;5031592;28;20021;-66
2023/10/13 11:23:25;;;;;;;22.33;6.53;;;;;;;20.91;100.00;100294.63;5043677;28;20439;-67
2023/10/13 11:25:59;;;;;;;23.52;6.93;;;;;;;21.02;100.00;100278.88;5034632;28;20537;-67
2023/10/13 11:28:27;;;;;;;23.98;7.05;;;;;;;20.98;100.00;100274.56;5031199;28;20034;-66
2023/10/13 11:33:56;;;;;;;21.52;6.90;;;;;;;21.47;100.00;100257.88;5003453;28;20037;-65
2023/10/13 11:36:22;;;;;;;24.13;7.25;;;;;;;21.57;100.00;100243.03;5034813;28;20037;-66
2023/10/13 11:41:18;;;;;;;22.90;7.30;;;;;;;21.68;100.00;100264.03;5034974;28;20435;-66
2023/10/13 11:51:46;;;;;;;23.45;6.78;;;;;;;21.97;100.00;100215.88;5032046;28;20033;-66
2023/10/13 11:54:15;;;;;;;25.02;7.07;;;;;;;21.87;100.00;100222.69;5034209;28;20029;-66
2023/10/13 11:56:41;;;;;;;22.33;7.00;;;;;;;21.81;100.00;100223.03;5034124;28;20504;-66
2023/10/13 11:59:15;;;;;;;25.52;7.25;;;;;;;21.84;100.00;100215.66;5041085;28;20064;-66
2023/10/13 12:12:20;;;;;;;22.73;7.30;;;;;;;22.45;100.00;100194.50;5044145;28;20381;-67
2023/10/13 12:14:58;;;;;;;23.83;7.03;;;;;;;22.68;100.00;100195.03;5043465;28;20478;-67
2023/10/13 12:17:28;;;;;;;23.23;7.07;;;;;;;22.79;100.00;100193.47;5045381;28;20426;-65
2023/10/13 12:20:10;;;;;;;23.60;7.10;;;;;;;22.79;100.00;100195.31;5042163;28;20094;-65
2023/10/13 12:22:38;;;;;;;22.92;7.22;;;;;;;22.85;100.00;100210.22;5042849;28;20034;-66
2023/10/13 12:25:34;;;;;;;22.00;6.80;;;;;;;22.97;100.00;100226.56;5045334;28;20033;-66
2023/10/13 12:30:57;;;;;;;23.98;7.00;;;;;;;23.05;100.00;100195.63;5036231;28;20392;-69
2023/10/13 12:33:24;;;;;;;23.45;7.20;;;;;;;23.04;100.00;100213.63;5045009;28;20020;-71
2023/10/13 12:36:14;;;;;;;22.77;6.90;;;;;;;23.04;100.00;100201.97;5041096;28;20543;-70
2023/10/13 12:52:15;;;;;;;23.15;6.60;;;;;;;22.56;100.00;100175.94;5043412;28;20501;-70
2023/10/13 12:54:54;;;;;;;23.73;6.93;;;;;;;22.58;100.00;100175.84;5043325;28;20033;-69
2023/10/13 12:57:22;;;;;;;22.52;6.20;;;;;;;22.58;100.00;100173.13;5040283;28;20484;-69
2023/10/13 12:59:53;;;;;;;22.75;6.35;;;;;;;22.49;100.00;100176.38;5038168;28;20033;-69
2023/10/13 13:02:25;;;;;;;21.85;6.50;;;;;;;22.67;100.00;100183.38;5032888;28;20447;-69
2023/10/13 13:04:56;;;;;;;22.38;6.03;;;;;;;22.83;100.00;100182.53;5031491;28;20457;-69
2023/10/13 13:07:22;;;;;;;24.27;6.50;;;;;;;22.85;100.00;100173.41;5029957;28;20036;-69
2023/10/13 13:09:48;;;;;;;22.73;6.50;;;;;;;22.83;100.00;100178.00;5031315;28;20112;-70
2023/10/13 13:12:13;;;;;;;24.33;6.57;;;;;;;22.83;100.00;100175.31;5032189;28;20037;-69
2023/10/13 13:14:44;;;;;;;25.13;6.40;;;;;;;22.75;100.00;100170.34;5032697;28;20132;-70
2023/10/13 13:17:09;;;;;;;22.00;5.97;;;;;;;22.67;100.00;100167.22;5032665;28;20112;-69
2023/10/13 13:19:38;;;;;;;23.38;6.45;;;;;;;22.62;100.00;100166.63;5032594;28;20064;-70
2023/10/13 13:22:05;;;;;;;23.17;5.80;;;;;;;22.68;100.00;100173.50;5032897;28;20036;-70
2023/10/13 13:24:31;;;;;;;23.33;5.85;;;;;;;22.67;100.00;100161.84;5032284;28;20080;-69
2023/10/13 13:27:02;;;;;;;25.30;6.20;;;;;;;22.52;100.00;100168.97;5032503;28;20068;-69
2023/10/13 13:29:29;;;;;;;25.48;6.40;;;;;;;22.47;100.00;100168.38;5032881;28;20033;-69
2023/10/13 13:31:55;;;;;;;24.10;6.38;;;;;;;22.21;100.00;100157.19;5032706;28;20516;-70
2023/10/13 13:34:21;;;;;;;21.52;5.78;;;;;;;22.24;100.00;100166.91;5032675;28;20038;-69
2023/10/13 13:36:52;;;;;;;24.80;6.72;;;;;;;22.26;100.00;100162.31;5032723;28;20034;-70
2023/10/13 13:39:29;;;;;;;19.55;5.90;;;;;;;22.10;100.00;100143.44;5032818;28;20117;-69
2023/10/13 13:41:56;;;;;;;22.08;5.75;;;;;;;22.10;100.00;100162.28;5032604;28;20029;-70
2023/10/13 13:44:35;;;;;;;21.77;5.72;;;;;;;22.09;100.00;100176.69;5032516;28;20465;-69
2023/10/13 13:47:05;;;;;;;22.30;5.63;;;;;;;22.02;100.00;100164.50;5032582;28;20030;-69
2023/10/13 13:49:39;;;;;;;21.98;5.93;;;;;;;21.74;100.00;100134.59;5032963;28;20423;-69
2023/10/13 13:52:05;;;;;;;23.85;6.38;;;;;;;21.78;100.00;100162.19;5032664;28;20029;-70
2023/10/13 13:54:31;;;;;;;23.45;5.93;;;;;;;21.82;100.00;100166.47;5032357;28;20037;-70
2023/10/13 13:56:57;;;;;;;23.77;6.05;;;;;;;21.86;100.00;100162.66;5032500;28;20045;-69
2023/10/13 13:59:22;;;;;;;21.40;6.15;;;;;;;21.97;100.00;100155.84;5032752;28;20034;-69
2023/10/13 14:01:48;;;;;;;21.60;6.28;;;;;;;22.13;100.00;100156.72;5032406;28;20036;-69
2023/10/13 14:04:17;;;;;;;23.73;5.82;;;;;;;22.20;100.00;100168.91;5032581;28;20476;-70
2023/10/13 14:06:44;;;;;;;22.73;5.78;;;;;;;22.23;100.00;100157.09;5032340;28;20026;-70
2023/10/13 14:09:32;;;;;;;21.52;6.00;;;;;;;22.22;100.00;100163.44;5032582;28;20052;-69
2023/10/13 14:14:55;;;;;;;23.67;5.65;;;;;;;22.21;100.00;100148.25;5029067;28;20476;-70
2023/10/13 14:17:28;;;;;;;22.38;5.97;;;;;;;22.20;100.00;100150.06;5030094;28;20029;-68
2023/10/13 14:19:55;;;;;;;21.70;5.60;;;;;;;22.35;100.00;100163.66;5033498;28;20026;-68
2023/10/13 14:22:24;;;;;;;22.42;5.90;;;;;;;22.47;100.00;100160.28;5034616;28;20550;-71
2023/10/13 14:24:54;;;;;;;24.35;6.30;;;;;;;22.60;100.00;100160.44;5030993;28;20477;-69
2023/10/13 14:27:21;;;;;;;24.25;6.30;;;;;;;22.66;100.00;100162.81;5032305;28;20029;-70
2023/10/13 14:29:47;;;;;;;21.42;6.10;;;;;;;22.56;100.00;100161.59;5032338;28;20065;-70
2023/10/13 14:32:15;;;;;;;23.02;6.15;;;;;;;22.53;100.00;100153.66;5034188;28;20108;-68
2023/10/13 14:34:42;;;;;;;24.25;5.93;;;;;;;22.51;100.00;100153.75;5035515;28;20025;-70
2023/10/13 14:37:08;;;;;;;20.92;5.90;;;;;;;22.40;100.00;100153.50;5035842;28;20130;-70
2023/10/13 14:39:35;;;;;;;22.42;6.00;;;;;;;22.36;100.00;100154.63;5035745;28;20025;-70
2023/10/13 14:42:05;;;;;;;21.45;6.22;;;;;;;22.32;100.00;100167.38;5030142;28;20030;-68